FL212 -KHSV
Flight info
| Callsign | FL212 |
|---|---|
| Flight time | N/A |
| Altitude | VFR |
| Route | |
| Aircraft |
Departure
| Time | N/A |
|---|---|
| Airport | - |
Arrival
| Time | 2026-04-21 00:06 |
|---|---|
| Airport | Huntsville International Airport (KHSV) |
| Time | Latitude | Longitude | Altitude | Speed | Heading |
|---|---|---|---|---|---|
| 2026-04-20 23:38 | 33.82550 | -85.35295 | 5992 ft | 233 kts | 276° |
| 2026-04-20 23:38 | 33.82637 | -85.37235 | 5992 ft | 232 kts | 277° |
| 2026-04-20 23:39 | 33.82735 | -85.39167 | 5992 ft | 231 kts | 277° |
| 2026-04-20 23:39 | 33.82814 | -85.41078 | 5992 ft | 232 kts | 276° |
| 2026-04-20 23:39 | 33.82897 | -85.43017 | 5989 ft | 232 kts | 276° |
| 2026-04-20 23:39 | 33.82981 | -85.44975 | 5983 ft | 232 kts | 276° |
| 2026-04-20 23:40 | 33.83071 | -85.46920 | 5963 ft | 233 kts | 276° |
| 2026-04-20 23:40 | 33.83152 | -85.48840 | 5961 ft | 233 kts | 276° |
| 2026-04-20 23:40 | 33.83239 | -85.50811 | 5965 ft | 233 kts | 276° |
| 2026-04-20 23:40 | 33.83325 | -85.52727 | 5966 ft | 232 kts | 276° |
| 2026-04-20 23:41 | 33.83404 | -85.54668 | 5989 ft | 233 kts | 276° |
| 2026-04-20 23:41 | 33.83486 | -85.56610 | 6003 ft | 232 kts | 276° |
| 2026-04-20 23:41 | 33.83566 | -85.58550 | 6014 ft | 232 kts | 276° |
| 2026-04-20 23:41 | 33.83654 | -85.60525 | 5799 ft | 241 kts | 276° |
| 2026-04-20 23:42 | 33.83746 | -85.62534 | 5708 ft | 240 kts | 275° |
| 2026-04-20 23:42 | 33.83837 | -85.64544 | 5604 ft | 239 kts | 278° |
| 2026-04-20 23:42 | 33.84350 | -85.66410 | 5597 ft | 234 kts | 298° |
| 2026-04-20 23:42 | 33.85150 | -85.68093 | 5591 ft | 231 kts | 301° |
| 2026-04-20 23:43 | 33.85874 | -85.69772 | 5596 ft | 227 kts | 297° |
| 2026-04-20 23:43 | 33.86560 | -85.71479 | 5613 ft | 226 kts | 296° |
| 2026-04-20 23:43 | 33.87200 | -85.73204 | 5664 ft | 225 kts | 296° |
| 2026-04-20 23:43 | 33.87858 | -85.74906 | 5780 ft | 222 kts | 297° |
| 2026-04-20 23:44 | 33.88499 | -85.76573 | 5955 ft | 217 kts | 296° |
| 2026-04-20 23:44 | 33.89122 | -85.78204 | 6134 ft | 213 kts | 297° |
| 2026-04-20 23:44 | 33.89735 | -85.79831 | 6206 ft | 216 kts | 296° |
| 2026-04-20 23:44 | 33.90357 | -85.81491 | 6209 ft | 220 kts | 296° |
| 2026-04-20 23:45 | 33.90992 | -85.83182 | 6210 ft | 223 kts | 297° |
| 2026-04-20 23:45 | 33.91629 | -85.84898 | 6213 ft | 226 kts | 296° |
| 2026-04-20 23:45 | 33.92257 | -85.86634 | 6213 ft | 227 kts | 295° |
| 2026-04-20 23:45 | 33.92854 | -85.88368 | 6218 ft | 228 kts | 296° |
| 2026-04-20 23:46 | 33.93496 | -85.90112 | 6219 ft | 228 kts | 296° |
| 2026-04-20 23:46 | 33.94147 | -85.91857 | 6218 ft | 229 kts | 296° |
| 2026-04-20 23:46 | 33.94801 | -85.93605 | 6219 ft | 229 kts | 296° |
| 2026-04-20 23:46 | 33.95451 | -85.95359 | 6219 ft | 229 kts | 296° |
| 2026-04-20 23:47 | 33.96109 | -85.97107 | 6219 ft | 229 kts | 296° |
| 2026-04-20 23:47 | 33.96764 | -85.98853 | 6220 ft | 229 kts | 296° |
| 2026-04-20 23:47 | 33.97421 | -86.00599 | 6219 ft | 229 kts | 296° |
| 2026-04-20 23:47 | 33.98078 | -86.02341 | 6220 ft | 228 kts | 297° |
| 2026-04-20 23:48 | 33.98733 | -86.04083 | 6219 ft | 228 kts | 296° |
| 2026-04-20 23:48 | 33.99387 | -86.05820 | 6220 ft | 228 kts | 297° |
| 2026-04-20 23:48 | 34.00044 | -86.07555 | 6220 ft | 228 kts | 297° |
| 2026-04-20 23:48 | 34.00695 | -86.09297 | 6219 ft | 228 kts | 296° |
| 2026-04-20 23:49 | 34.01332 | -86.11017 | 6219 ft | 228 kts | 296° |
| 2026-04-20 23:49 | 34.01987 | -86.12761 | 6219 ft | 228 kts | 297° |
| 2026-04-20 23:49 | 34.02644 | -86.14501 | 6222 ft | 228 kts | 297° |
| 2026-04-20 23:49 | 34.03308 | -86.16241 | 6220 ft | 229 kts | 297° |
| 2026-04-20 23:50 | 34.04108 | -86.17887 | 6218 ft | 227 kts | 308° |
| 2026-04-20 23:50 | 34.05065 | -86.19407 | 6210 ft | 228 kts | 309° |
| 2026-04-20 23:50 | 34.06080 | -86.20897 | 6028 ft | 234 kts | 311° |
| 2026-04-20 23:50 | 34.07151 | -86.22402 | 5922 ft | 236 kts | 311° |
| 2026-04-20 23:51 | 34.08198 | -86.23906 | 5926 ft | 232 kts | 311° |
| 2026-04-20 23:51 | 34.09230 | -86.25398 | 5924 ft | 231 kts | 311° |
| 2026-04-20 23:51 | 34.10252 | -86.26882 | 5926 ft | 230 kts | 311° |
| 2026-04-20 23:51 | 34.11259 | -86.28334 | 5922 ft | 228 kts | 311° |
| 2026-04-20 23:52 | 34.12272 | -86.29805 | 5920 ft | 228 kts | 311° |
| 2026-04-20 23:52 | 34.13283 | -86.31276 | 5922 ft | 228 kts | 311° |
| 2026-04-20 23:52 | 34.14298 | -86.32747 | 5921 ft | 228 kts | 311° |
| 2026-04-20 23:52 | 34.15315 | -86.34219 | 5920 ft | 228 kts | 311° |
| 2026-04-20 23:53 | 34.16328 | -86.35691 | 5926 ft | 228 kts | 310° |
| 2026-04-20 23:53 | 34.17342 | -86.37158 | 5926 ft | 227 kts | 310° |
| 2026-04-20 23:53 | 34.18358 | -86.38617 | 5925 ft | 227 kts | 311° |
| 2026-04-20 23:53 | 34.19374 | -86.40073 | 5925 ft | 227 kts | 311° |
| 2026-04-20 23:54 | 34.20391 | -86.41532 | 5924 ft | 227 kts | 311° |
| 2026-04-20 23:54 | 34.21396 | -86.42972 | 5924 ft | 227 kts | 311° |
| 2026-04-20 23:54 | 34.22414 | -86.44431 | 5925 ft | 227 kts | 311° |
| 2026-04-20 23:54 | 34.23435 | -86.45888 | 5926 ft | 227 kts | 311° |
| 2026-04-20 23:55 | 34.24455 | -86.47348 | 5926 ft | 228 kts | 311° |
| 2026-04-20 23:55 | 34.25477 | -86.48808 | 5929 ft | 228 kts | 311° |
| 2026-04-20 23:55 | 34.26502 | -86.50276 | 5925 ft | 228 kts | 311° |
| 2026-04-20 23:55 | 34.27525 | -86.51740 | 5923 ft | 228 kts | 311° |
| 2026-04-20 23:56 | 34.28546 | -86.53198 | 5925 ft | 227 kts | 311° |
| 2026-04-20 23:56 | 34.29569 | -86.54660 | 5925 ft | 228 kts | 311° |
| 2026-04-20 23:56 | 34.30592 | -86.56127 | 5927 ft | 228 kts | 311° |
| 2026-04-20 23:56 | 34.31614 | -86.57595 | 5923 ft | 228 kts | 311° |
| 2026-04-20 23:57 | 34.32634 | -86.59063 | 5925 ft | 228 kts | 311° |
| 2026-04-20 23:57 | 34.33653 | -86.60535 | 5924 ft | 228 kts | 311° |
| 2026-04-20 23:57 | 34.34661 | -86.61986 | 5923 ft | 228 kts | 311° |
| 2026-04-20 23:57 | 34.35685 | -86.63454 | 5924 ft | 228 kts | 312° |
| 2026-04-20 23:58 | 34.36882 | -86.64700 | 5919 ft | 228 kts | 325° |
| 2026-04-20 23:58 | 34.38205 | -86.65755 | 5919 ft | 228 kts | 327° |
| 2026-04-20 23:58 | 34.39534 | -86.66802 | 5918 ft | 228 kts | 327° |
| 2026-04-20 23:58 | 34.40859 | -86.67849 | 5920 ft | 227 kts | 327° |
| 2026-04-20 23:59 | 34.42185 | -86.68894 | 5919 ft | 227 kts | 327° |
| 2026-04-20 23:59 | 34.43511 | -86.69939 | 5922 ft | 227 kts | 327° |
| 2026-04-20 23:59 | 34.44834 | -86.70981 | 5922 ft | 227 kts | 327° |
| 2026-04-20 23:59 | 34.46147 | -86.71983 | 5928 ft | 222 kts | 330° |
| 2026-04-21 00:00 | 34.47471 | -86.72832 | 5818 ft | 212 kts | 333° |
| 2026-04-21 00:00 | 34.48825 | -86.73470 | 5680 ft | 206 kts | 343° |
| 2026-04-21 00:00 | 34.50215 | -86.73815 | 5418 ft | 201 kts | 349° |
| 2026-04-21 00:00 | 34.51581 | -86.74121 | 4931 ft | 200 kts | 347° |
| 2026-04-21 00:01 | 34.52946 | -86.74515 | 4362 ft | 202 kts | 345° |
| 2026-04-21 00:01 | 34.54273 | -86.74607 | 4337 ft | 180 kts | 8° |
| 2026-04-21 00:01 | 34.55374 | -86.73928 | 4183 ft | 190 kts | 39° |
| 2026-04-21 00:01 | 34.56103 | -86.72560 | 4241 ft | 194 kts | 69° |
| 2026-04-21 00:02 | 34.56182 | -86.70959 | 4300 ft | 201 kts | 102° |
| 2026-04-21 00:02 | 34.55340 | -86.69577 | 4155 ft | 211 kts | 148° |
| 2026-04-21 00:02 | 34.53962 | -86.69219 | 4247 ft | 201 kts | 191° |
| 2026-04-21 00:02 | 34.52813 | -86.70045 | 4249 ft | 193 kts | 239° |
| 2026-04-21 00:03 | 34.52732 | -86.71586 | 4104 ft | 189 kts | 294° |
| 2026-04-21 00:03 | 34.53560 | -86.72769 | 3690 ft | 188 kts | 321° |
| 2026-04-21 00:03 | 34.54553 | -86.73832 | 3124 ft | 189 kts | 319° |
| 2026-04-21 00:03 | 34.55523 | -86.74722 | 2703 ft | 161 kts | 326° |
| 2026-04-21 00:04 | 34.56483 | -86.75331 | 2263 ft | 150 kts | 336° |
| 2026-04-21 00:04 | 34.57423 | -86.75753 | 1815 ft | 136 kts | 339° |
| 2026-04-21 00:04 | 34.58248 | -86.76102 | 1445 ft | 122 kts | 339° |
| 2026-04-21 00:04 | 34.59080 | -86.76387 | 1351 ft | 114 kts | 344° |
| 2026-04-21 00:05 | 34.59832 | -86.76570 | 1219 ft | 115 kts | 349° |
| 2026-04-21 00:05 | 34.60619 | -86.76638 | 1141 ft | 113 kts | 357° |
| 2026-04-21 00:05 | 34.61421 | -86.76600 | 956 ft | 117 kts | 355° |
| 2026-04-21 00:05 | 34.62233 | -86.76597 | 754 ft | 114 kts | 356° |
| 2026-04-21 00:06 | 34.63009 | -86.76589 | 640 ft | 108 kts | 358° |
| 2026-04-21 00:06 | 34.63677 | -86.76579 | 630 ft | 84 kts | 1° |
| 2026-04-21 00:06 | 34.64180 | -86.76569 | 626 ft | 57 kts | 1° |
| 2026-04-21 00:06 | 34.64456 | -86.76562 | 635 ft | 17 kts | 2° |
| 2026-04-21 00:07 | 34.64490 | -86.76494 | 635 ft | 15 kts | 111° |
| 2026-04-21 00:07 | 34.64485 | -86.76473 | 635 ft | 0 kts | 102° |
| 2026-04-21 00:08 | 34.64484 | -86.76467 | 635 ft | 5 kts | 97° |
| 2026-04-21 00:08 | 34.64503 | -86.76399 | 634 ft | 12 kts | 43° |
| 2026-04-21 00:08 | 34.64593 | -86.76383 | 635 ft | 15 kts | 359° |
| 2026-04-21 00:09 | 34.64706 | -86.76390 | 637 ft | 17 kts | 1° |
| 2026-04-21 00:09 | 34.64829 | -86.76396 | 639 ft | 17 kts | 336° |
| 2026-04-21 00:09 | 34.64833 | -86.76474 | 642 ft | 8 kts | 265° |
| 2026-04-21 00:09 | 34.64829 | -86.76549 | 643 ft | 10 kts | 268° |
| 2026-04-21 00:10 | 34.64830 | -86.76652 | 641 ft | 14 kts | 272° |
| 2026-04-21 00:10 | 34.64834 | -86.76710 | 639 ft | 0 kts | 275° |
| 2026-04-21 00:10 | 34.64834 | -86.76712 | 639 ft | 2 kts | 277° |
| 2026-04-21 00:10 | 34.64854 | -86.76729 | 639 ft | 6 kts | 40° |
| 2026-04-21 00:11 | 34.64892 | -86.76708 | 640 ft | 8 kts | 1° |
| 2026-04-21 00:11 | 34.64952 | -86.76705 | 641 ft | 10 kts | 3° |
| 2026-04-21 00:11 | 34.65029 | -86.76702 | 642 ft | 13 kts | 0° |
| 2026-04-21 00:11 | 34.65126 | -86.76700 | 640 ft | 14 kts | 355° |
| 2026-04-21 00:12 | 34.65164 | -86.76776 | 637 ft | 13 kts | 268° |
| 2026-04-21 00:12 | 34.65150 | -86.76875 | 635 ft | 11 kts | 254° |
| 2026-04-21 00:12 | 34.65121 | -86.76926 | 633 ft | 4 kts | 209° |
| 2026-04-21 00:12 | 34.65108 | -86.76932 | 633 ft | 2 kts | 195° |
| 2026-04-21 00:13 | 34.65099 | -86.76934 | 633 ft | 1 kts | 188° |
| 2026-04-21 00:13 | 34.65097 | -86.76934 | 633 ft | 0 kts | 189° |
| 2026-04-21 00:16 | 34.65036 | -86.76929 | 633 ft | 0 kts | 91° |